Saturday, January 20, 2018, 10:12 AM EST
Back to Local

KGFL, Floyd Bennett Memorial Airport

Location: Queensbury, NY, United States Lat: 43.333
Local Time: 10:12 AM EST (15:12 GMT) Lon: -73.617
Time Zone: US/Eastern Elev: 328 ft

Show me the last for .
Show Decoded

2018-01-20 09:53 METAR KGFL 201453Z AUTO 18006KT 10SM CLR 00/M06 A2976 RMK AO2 SLP089 T00001056
                 51016 =
2018-01-20 08:53 METAR KGFL 201353Z AUTO 19005KT 10SM CLR M02/M07 A2976 RMK AO2 SLP088 T10171067
                 =
2018-01-20 07:53 METAR KGFL 201253Z AUTO 19008KT 10SM CLR M03/M07 A2972 RMK AO2 SLP075 T10281067
                 =
2018-01-20 06:53 METAR KGFL 201153Z AUTO 20010KT 10SM CLR M02/M07 A2971 RMK AO2 SLP071 T10221067
                 11022 21050 55006 =
2018-01-20 05:53 METAR KGFL 201053Z AUTO 20011KT 10SM CLR M02/M07 A2970 RMK AO2 SLP066 T10221067
                 =
2018-01-20 04:53 METAR KGFL 200953Z AUTO 20010KT 10SM CLR M03/M07 A2970 RMK AO2 SLP066 T10281072
                 =
2018-01-20 03:53 METAR KGFL 200853Z AUTO 20007KT 10SM CLR M04/M07 A2973 RMK AO2 SLP078 T10391072
                 58016 =
2018-01-20 01:53 METAR KGFL 200653Z AUTO 22005KT 10SM CLR M04/M08 A2978 RMK AO2 SLP094 T10391078
                 =
2018-01-20 00:53 METAR KGFL 200553Z AUTO VRB03KT 9SM CLR M05/M08 A2978 RMK AO2 SLP095 I6000
                 T10501078 11033 21111 58028 =
2018-01-19 23:53 METAR KGFL 200453Z AUTO 00000KT 5SM BR FEW120 M08/M09 A2981 RMK AO2 SLP105
                 T10781089 410281111 =
2018-01-19 22:53 METAR KGFL 200353Z AUTO 00000KT 4SM BR CLR M10/M11 A2984 RMK AO2 SLP117 I1000
                 T11001106 =
2018-01-19 21:53 METAR KGFL 200253Z AUTO 00000KT 4SM BR CLR M10/M11 A2986 RMK AO2 SLP125
                 T11001106 58017 =
2018-01-19 20:53 METAR KGFL 200153Z AUTO 00000KT 7SM CLR M07/M08 A2988 RMK AO2 SLP130 T10671083 =
2018-01-19 19:53 METAR KGFL 200053Z AUTO 21004KT 8SM CLR M04/M08 A2990 RMK AO2 SLP137 T10391078 =
2018-01-19 18:53 METAR KGFL 192353Z AUTO 20004KT 9SM CLR M04/M08 A2991 RMK AO2 SLP141 T10391078
                 11028 21039 55003 =
2018-01-19 17:53 METAR KGFL 192253Z AUTO 19006KT 9SM FEW030 BKN039 M03/M07 A2991 RMK AO2 SLP139
                 T10281072 =
2018-01-19 17:40 METAR KGFL 192240Z AUTO 17005KT 9SM SCT030 OVC040 M03/M07 A2992 RMK AO2
                 T10331067 =
2018-01-19 16:53 METAR KGFL 192153Z AUTO 18005KT 8SM OVC026 M03/M07 A2992 RMK AO2 SLP141
                 T10281072 =
2018-01-19 15:53 METAR KGFL 192053Z AUTO 18006KT 9SM BKN029 OVC043 M03/M07 A2992 RMK AO2 SLP143
                 T10281072 56007 =
2018-01-19 14:53 METAR KGFL 191953Z AUTO 21006KT 10SM OVC028 M03/M08 A2993 RMK AO2 SLP146
                 T10281078 =
2018-01-19 13:53 METAR KGFL 191853Z AUTO 20007KT 9SM OVC029 M03/M08 A2993 RMK AO2 SLP145
                 T10331083 =
2018-01-19 13:43 METAR KGFL 191843Z AUTO 21009KT 9SM OVC028 M04/M09 A2993 RMK AO2 T10391089 =
2018-01-19 12:53 METAR KGFL 191753Z AUTO 20007KT 9SM OVC038 M04/M09 A2994 RMK AO2 SLP150
                 T10391089 11039 21067 58014 =
2018-01-19 11:53 METAR KGFL 191653Z AUTO 22009KT 9SM OVC037 M04/M09 A2996 RMK AO2 SLP155
                 T10441089 =
2018-01-19 10:53 METAR KGFL 191553Z AUTO 20008KT 8SM OVC035 M05/M09 A2998 RMK AO2 SLP164
                 T10501089 =

Support USWX by starting your Amazon purchase here.